sensor_id;sensor_type;location;lat;lon;timestamp;temperature;humidity
15630;DHT22;7914;50.842;0.166;2023-03-23T00:01:12;10.50;100.00
15630;DHT22;7914;50.842;0.166;2023-03-23T00:03:46;10.50;100.00
15630;DHT22;7914;50.842;0.166;2023-03-23T00:06:12;10.50;100.00
15630;DHT22;7914;50.842;0.166;2023-03-23T00:08:46;10.40;100.00
15630;DHT22;7914;50.842;0.166;2023-03-23T00:11:17;10.40;100.00
15630;DHT22;7914;50.842;0.166;2023-03-23T00:13:47;10.50;100.00
15630;DHT22;7914;50.842;0.166;2023-03-23T00:16:22;10.40;100.00
15630;DHT22;7914;50.842;0.166;2023-03-23T00:18:56;10.50;100.00
15630;DHT22;7914;50.842;0.166;2023-03-23T00:21:26;10.50;100.00
15630;DHT22;7914;50.842;0.166;2023-03-23T00:24:07;10.50;100.00
15630;DHT22;7914;50.842;0.166;2023-03-23T00:26:35;10.60;100.00
15630;DHT22;7914;50.842;0.166;2023-03-23T00:29:07;10.50;100.00
15630;DHT22;7914;50.842;0.166;2023-03-23T00:31:33;10.40;100.00
15630;DHT22;7914;50.842;0.166;2023-03-23T00:34:03;10.40;100.00
15630;DHT22;7914;50.842;0.166;2023-03-23T00:36:31;10.40;100.00
15630;DHT22;7914;50.842;0.166;2023-03-23T00:39:03;10.40;100.00
15630;DHT22;7914;50.842;0.166;2023-03-23T00:41:30;10.40;100.00
15630;DHT22;7914;50.842;0.166;2023-03-23T00:43:57;10.40;100.00
15630;DHT22;7914;50.842;0.166;2023-03-23T00:46:24;10.40;100.00
15630;DHT22;7914;50.842;0.166;2023-03-23T00:48:50;10.30;100.00
15630;DHT22;7914;50.842;0.166;2023-03-23T00:51:17;10.40;100.00
15630;DHT22;7914;50.842;0.166;2023-03-23T00:53:43;10.40;100.00
15630;DHT22;7914;50.842;0.166;2023-03-23T00:56:10;10.40;100.00
15630;DHT22;7914;50.842;0.166;2023-03-23T00:58:36;10.30;100.00
15630;DHT22;7914;50.842;0.166;2023-03-23T01:01:04;10.30;100.00
15630;DHT22;7914;50.842;0.166;2023-03-23T01:03:30;10.20;100.00
15630;DHT22;7914;50.842;0.166;2023-03-23T01:05:55;10.20;100.00
15630;DHT22;7914;50.842;0.166;2023-03-23T01:08:23;10.30;100.00
15630;DHT22;7914;50.842;0.166;2023-03-23T01:10:49;10.20;100.00
15630;DHT22;7914;50.842;0.166;2023-03-23T01:13:16;10.20;100.00
15630;DHT22;7914;50.842;0.166;2023-03-23T01:15:43;10.20;100.00
15630;DHT22;7914;50.842;0.166;2023-03-23T01:18:09;10.10;100.00
15630;DHT22;7914;50.842;0.166;2023-03-23T01:20:36;10.00;100.00
15630;DHT22;7914;50.842;0.166;2023-03-23T01:23:03;9.90;100.00
15630;DHT22;7914;50.842;0.166;2023-03-23T01:25:31;9.80;100.00
15630;DHT22;7914;50.842;0.166;2023-03-23T01:27:58;9.70;100.00
15630;DHT22;7914;50.842;0.166;2023-03-23T01:30:25;9.80;100.00
15630;DHT22;7914;50.842;0.166;2023-03-23T01:32:51;9.80;100.00
15630;DHT22;7914;50.842;0.166;2023-03-23T01:35:18;9.80;100.00
15630;DHT22;7914;50.842;0.166;2023-03-23T01:37:45;9.80;100.00
15630;DHT22;7914;50.842;0.166;2023-03-23T01:40:14;9.80;100.00
15630;DHT22;7914;50.842;0.166;2023-03-23T01:42:40;9.80;100.00
15630;DHT22;7914;50.842;0.166;2023-03-23T01:47:47;9.80;100.00
15630;DHT22;7914;50.842;0.166;2023-03-23T01:50:13;9.90;100.00
15630;DHT22;7914;50.842;0.166;2023-03-23T01:52:39;9.90;100.00
15630;DHT22;7914;50.842;0.166;2023-03-23T01:55:06;9.90;100.00
15630;DHT22;7914;50.842;0.166;2023-03-23T01:57:33;9.80;100.00
15630;DHT22;7914;50.842;0.166;2023-03-23T02:00:04;9.80;100.00
15630;DHT22;7914;50.842;0.166;2023-03-23T02:02:36;9.80;100.00
15630;DHT22;7914;50.842;0.166;2023-03-23T02:05:11;9.70;100.00
15630;DHT22;7914;50.842;0.166;2023-03-23T02:07:37;9.80;100.00
15630;DHT22;7914;50.842;0.166;2023-03-23T02:10:03;9.80;100.00
15630;DHT22;7914;50.842;0.166;2023-03-23T02:12:29;9.80;100.00
15630;DHT22;7914;50.842;0.166;2023-03-23T02:14:56;9.90;100.00
15630;DHT22;7914;50.842;0.166;2023-03-23T02:23:50;9.90;100.00
15630;DHT22;7914;50.842;0.166;2023-03-23T02:35:24;9.80;100.00
15630;DHT22;7914;50.842;0.166;2023-03-23T02:38:42;9.80;100.00
15630;DHT22;7914;50.842;0.166;2023-03-23T02:40:50;9.80;100.00
15630;DHT22;7914;50.842;0.166;2023-03-23T02:43:22;9.70;100.00
15630;DHT22;7914;50.842;0.166;2023-03-23T02:45:50;9.60;100.00
15630;DHT22;7914;50.842;0.166;2023-03-23T02:48:19;9.70;100.00
15630;DHT22;7914;50.842;0.166;2023-03-23T02:50:51;9.70;100.00
15630;DHT22;7914;50.842;0.166;2023-03-23T02:53:21;9.70;100.00
15630;DHT22;7914;50.842;0.166;2023-03-23T02:55:51;9.60;100.00
15630;DHT22;7914;50.842;0.166;2023-03-23T02:58:19;9.60;100.00
15630;DHT22;7914;50.842;0.166;2023-03-23T03:00:48;9.50;100.00
15630;DHT22;7914;50.842;0.166;2023-03-23T03:03:18;9.40;100.00
15630;DHT22;7914;50.842;0.166;2023-03-23T03:08:54;9.30;100.00
15630;DHT22;7914;50.842;0.166;2023-03-23T03:11:21;9.20;100.00
15630;DHT22;7914;50.842;0.166;2023-03-23T03:14:00;9.20;100.00
15630;DHT22;7914;50.842;0.166;2023-03-23T03:16:53;9.20;100.00
15630;DHT22;7914;50.842;0.166;2023-03-23T03:19:22;9.10;100.00
15630;DHT22;7914;50.842;0.166;2023-03-23T03:21:52;9.10;100.00
15630;DHT22;7914;50.842;0.166;2023-03-23T03:24:20;9.00;100.00
15630;DHT22;7914;50.842;0.166;2023-03-23T03:26:50;9.00;100.00
15630;DHT22;7914;50.842;0.166;2023-03-23T03:29:37;9.00;100.00
15630;DHT22;7914;50.842;0.166;2023-03-23T03:32:10;9.00;100.00
15630;DHT22;7914;50.842;0.166;2023-03-23T03:34:37;9.00;100.00
15630;DHT22;7914;50.842;0.166;2023-03-23T03:37:04;9.10;100.00
15630;DHT22;7914;50.842;0.166;2023-03-23T03:39:35;9.00;100.00
15630;DHT22;7914;50.842;0.166;2023-03-23T03:42:03;9.00;100.00
15630;DHT22;7914;50.842;0.166;2023-03-23T03:44:29;9.00;100.00
15630;DHT22;7914;50.842;0.166;2023-03-23T03:46:54;9.10;100.00
15630;DHT22;7914;50.842;0.166;2023-03-23T03:49:20;9.20;100.00
15630;DHT22;7914;50.842;0.166;2023-03-23T03:51:48;9.20;100.00
15630;DHT22;7914;50.842;0.166;2023-03-23T03:54:15;9.40;100.00
15630;DHT22;7914;50.842;0.166;2023-03-23T03:56:41;9.40;100.00
15630;DHT22;7914;50.842;0.166;2023-03-23T03:59:10;9.40;100.00
15630;DHT22;7914;50.842;0.166;2023-03-23T04:01:37;9.30;100.00
15630;DHT22;7914;50.842;0.166;2023-03-23T04:04:04;9.30;100.00
15630;DHT22;7914;50.842;0.166;2023-03-23T04:06:33;9.20;100.00
15630;DHT22;7914;50.842;0.166;2023-03-23T04:09:02;9.10;100.00
15630;DHT22;7914;50.842;0.166;2023-03-23T04:11:32;9.10;100.00
15630;DHT22;7914;50.842;0.166;2023-03-23T04:13:57;9.10;100.00
15630;DHT22;7914;50.842;0.166;2023-03-23T04:16:23;9.00;100.00
15630;DHT22;7914;50.842;0.166;2023-03-23T04:18:50;9.00;100.00
15630;DHT22;7914;50.842;0.166;2023-03-23T04:21:15;9.00;100.00
15630;DHT22;7914;50.842;0.166;2023-03-23T04:23:41;8.90;100.00
15630;DHT22;7914;50.842;0.166;2023-03-23T04:26:08;8.90;100.00
15630;DHT22;7914;50.842;0.166;2023-03-23T04:28:33;8.90;100.00
15630;DHT22;7914;50.842;0.166;2023-03-23T04:31:00;8.80;100.00
15630;DHT22;7914;50.842;0.166;2023-03-23T04:33:28;8.80;100.00
15630;DHT22;7914;50.842;0.166;2023-03-23T04:35:59;8.90;100.00
15630;DHT22;7914;50.842;0.166;2023-03-23T04:38:27;8.90;100.00
15630;DHT22;7914;50.842;0.166;2023-03-23T04:40:55;8.80;100.00
15630;DHT22;7914;50.842;0.166;2023-03-23T04:43:23;8.90;100.00
15630;DHT22;7914;50.842;0.166;2023-03-23T04:45:57;8.80;100.00
15630;DHT22;7914;50.842;0.166;2023-03-23T04:48:24;9.00;100.00
15630;DHT22;7914;50.842;0.166;2023-03-23T04:50:51;9.10;100.00
15630;DHT22;7914;50.842;0.166;2023-03-23T04:53:17;9.10;100.00
15630;DHT22;7914;50.842;0.166;2023-03-23T04:55:45;9.10;100.00
15630;DHT22;7914;50.842;0.166;2023-03-23T04:58:11;9.10;100.00
15630;DHT22;7914;50.842;0.166;2023-03-23T05:00:41;9.20;100.00
15630;DHT22;7914;50.842;0.166;2023-03-23T05:03:10;9.20;100.00
15630;DHT22;7914;50.842;0.166;2023-03-23T05:05:37;9.30;100.00
15630;DHT22;7914;50.842;0.166;2023-03-23T05:08:03;9.30;100.00
15630;DHT22;7914;50.842;0.166;2023-03-23T05:10:29;9.20;100.00
15630;DHT22;7914;50.842;0.166;2023-03-23T05:12:55;9.30;100.00
15630;DHT22;7914;50.842;0.166;2023-03-23T05:15:21;9.20;100.00
15630;DHT22;7914;50.842;0.166;2023-03-23T05:17:46;9.20;100.00
15630;DHT22;7914;50.842;0.166;2023-03-23T05:20:15;9.20;100.00
15630;DHT22;7914;50.842;0.166;2023-03-23T05:22:45;9.20;100.00
15630;DHT22;7914;50.842;0.166;2023-03-23T05:25:15;9.20;100.00
15630;DHT22;7914;50.842;0.166;2023-03-23T05:27:45;9.30;100.00
15630;DHT22;7914;50.842;0.166;2023-03-23T05:30:19;9.20;100.00
15630;DHT22;7914;50.842;0.166;2023-03-23T05:32:45;9.10;100.00
15630;DHT22;7914;50.842;0.166;2023-03-23T05:35:18;9.20;100.00
15630;DHT22;7914;50.842;0.166;2023-03-23T05:37:45;9.20;100.00
15630;DHT22;7914;50.842;0.166;2023-03-23T05:40:12;9.20;100.00
15630;DHT22;7914;50.842;0.166;2023-03-23T05:42:39;9.20;100.00
15630;DHT22;7914;50.842;0.166;2023-03-23T05:45:08;9.20;100.00
15630;DHT22;7914;50.842;0.166;2023-03-23T05:47:34;9.30;100.00
15630;DHT22;7914;50.842;0.166;2023-03-23T05:50:00;9.30;100.00
15630;DHT22;7914;50.842;0.166;2023-03-23T05:52:26;9.30;100.00
15630;DHT22;7914;50.842;0.166;2023-03-23T05:54:53;9.30;100.00
15630;DHT22;7914;50.842;0.166;2023-03-23T05:57:19;9.30;100.00
15630;DHT22;7914;50.842;0.166;2023-03-23T05:59:48;9.20;100.00
15630;DHT22;7914;50.842;0.166;2023-03-23T06:02:14;9.20;100.00
15630;DHT22;7914;50.842;0.166;2023-03-23T06:04:41;9.30;100.00
15630;DHT22;7914;50.842;0.166;2023-03-23T06:07:08;9.20;100.00
15630;DHT22;7914;50.842;0.166;2023-03-23T06:09:38;9.20;100.00
15630;DHT22;7914;50.842;0.166;2023-03-23T06:12:04;9.10;100.00
15630;DHT22;7914;50.842;0.166;2023-03-23T06:14:30;9.10;100.00
15630;DHT22;7914;50.842;0.166;2023-03-23T06:16:57;9.10;100.00
15630;DHT22;7914;50.842;0.166;2023-03-23T06:19:22;9.10;100.00
15630;DHT22;7914;50.842;0.166;2023-03-23T06:21:48;9.20;100.00
15630;DHT22;7914;50.842;0.166;2023-03-23T06:24:14;9.30;100.00
15630;DHT22;7914;50.842;0.166;2023-03-23T06:26:40;9.40;100.00
15630;DHT22;7914;50.842;0.166;2023-03-23T06:29:09;9.40;100.00
15630;DHT22;7914;50.842;0.166;2023-03-23T06:31:46;9.50;100.00
15630;DHT22;7914;50.842;0.166;2023-03-23T06:34:13;9.50;100.00
15630;DHT22;7914;50.842;0.166;2023-03-23T06:36:40;9.50;100.00
15630;DHT22;7914;50.842;0.166;2023-03-23T06:39:09;9.50;100.00
15630;DHT22;7914;50.842;0.166;2023-03-23T06:41:35;9.60;100.00
15630;DHT22;7914;50.842;0.166;2023-03-23T06:44:01;9.60;100.00
15630;DHT22;7914;50.842;0.166;2023-03-23T06:46:28;9.60;100.00
15630;DHT22;7914;50.842;0.166;2023-03-23T06:48:54;9.70;100.00
15630;DHT22;7914;50.842;0.166;2023-03-23T06:51:20;9.70;100.00
15630;DHT22;7914;50.842;0.166;2023-03-23T06:53:47;9.80;100.00
15630;DHT22;7914;50.842;0.166;2023-03-23T06:56:13;9.80;100.00
15630;DHT22;7914;50.842;0.166;2023-03-23T06:58:40;9.80;100.00
15630;DHT22;7914;50.842;0.166;2023-03-23T07:01:08;10.00;100.00
15630;DHT22;7914;50.842;0.166;2023-03-23T07:03:35;10.00;100.00
15630;DHT22;7914;50.842;0.166;2023-03-23T07:06:02;10.10;100.00
15630;DHT22;7914;50.842;0.166;2023-03-23T07:08:28;10.20;100.00
15630;DHT22;7914;50.842;0.166;2023-03-23T07:10:55;10.20;100.00
15630;DHT22;7914;50.842;0.166;2023-03-23T07:13:22;10.30;100.00
15630;DHT22;7914;50.842;0.166;2023-03-23T07:15:49;10.40;100.00
15630;DHT22;7914;50.842;0.166;2023-03-23T07:18:17;10.40;100.00
15630;DHT22;7914;50.842;0.166;2023-03-23T07:20:43;10.40;100.00
15630;DHT22;7914;50.842;0.166;2023-03-23T07:23:09;10.40;100.00
15630;DHT22;7914;50.842;0.166;2023-03-23T07:25:35;10.50;100.00
15630;DHT22;7914;50.842;0.166;2023-03-23T07:28:03;10.60;100.00
15630;DHT22;7914;50.842;0.166;2023-03-23T07:30:29;10.50;100.00
15630;DHT22;7914;50.842;0.166;2023-03-23T07:32:56;10.40;100.00
15630;DHT22;7914;50.842;0.166;2023-03-23T07:35:24;10.40;100.00
15630;DHT22;7914;50.842;0.166;2023-03-23T07:37:52;10.40;100.00
15630;DHT22;7914;50.842;0.166;2023-03-23T07:40:19;10.50;100.00
15630;DHT22;7914;50.842;0.166;2023-03-23T07:42:53;10.60;100.00
15630;DHT22;7914;50.842;0.166;2023-03-23T07:45:20;10.70;100.00
15630;DHT22;7914;50.842;0.166;2023-03-23T07:47:47;10.70;100.00
15630;DHT22;7914;50.842;0.166;2023-03-23T07:50:14;10.60;100.00
15630;DHT22;7914;50.842;0.166;2023-03-23T07:52:41;10.60;100.00
15630;DHT22;7914;50.842;0.166;2023-03-23T07:55:10;10.60;100.00
15630;DHT22;7914;50.842;0.166;2023-03-23T07:57:46;10.60;100.00
15630;DHT22;7914;50.842;0.166;2023-03-23T08:00:14;10.60;100.00
15630;DHT22;7914;50.842;0.166;2023-03-23T08:02:46;10.60;100.00
15630;DHT22;7914;50.842;0.166;2023-03-23T08:05:14;10.70;100.00
15630;DHT22;7914;50.842;0.166;2023-03-23T08:07:41;10.90;100.00
15630;DHT22;7914;50.842;0.166;2023-03-23T08:10:09;10.90;100.00
15630;DHT22;7914;50.842;0.166;2023-03-23T08:12:39;11.00;100.00
15630;DHT22;7914;50.842;0.166;2023-03-23T08:15:09;11.00;100.00
15630;DHT22;7914;50.842;0.166;2023-03-23T08:17:39;11.20;100.00
15630;DHT22;7914;50.842;0.166;2023-03-23T08:20:06;11.30;100.00
15630;DHT22;7914;50.842;0.166;2023-03-23T08:22:42;11.60;100.00
15630;DHT22;7914;50.842;0.166;2023-03-23T08:25:12;11.70;100.00
15630;DHT22;7914;50.842;0.166;2023-03-23T08:27:38;11.80;100.00
15630;DHT22;7914;50.842;0.166;2023-03-23T08:30:15;11.80;99.40
15630;DHT22;7914;50.842;0.166;2023-03-23T08:32:42;11.90;100.00
15630;DHT22;7914;50.842;0.166;2023-03-23T08:35:10;12.00;98.80
15630;DHT22;7914;50.842;0.166;2023-03-23T08:37:38;12.10;98.30
15630;DHT22;7914;50.842;0.166;2023-03-23T08:40:07;12.20;98.30
15630;DHT22;7914;50.842;0.166;2023-03-23T08:42:40;12.40;98.40
15630;DHT22;7914;50.842;0.166;2023-03-23T08:45:10;12.50;97.90
15630;DHT22;7914;50.842;0.166;2023-03-23T08:47:37;12.60;98.40
15630;DHT22;7914;50.842;0.166;2023-03-23T08:50:08;12.80;96.80
15630;DHT22;7914;50.842;0.166;2023-03-23T08:52:34;12.70;96.00
15630;DHT22;7914;50.842;0.166;2023-03-23T08:54:59;12.80;96.60
15630;DHT22;7914;50.842;0.166;2023-03-23T08:57:26;12.90;96.40
15630;DHT22;7914;50.842;0.166;2023-03-23T08:59:53;13.00;95.10
15630;DHT22;7914;50.842;0.166;2023-03-23T09:02:27;13.20;95.40
15630;DHT22;7914;50.842;0.166;2023-03-23T09:04:54;13.40;94.30
15630;DHT22;7914;50.842;0.166;2023-03-23T09:07:20;13.60;92.20
15630;DHT22;7914;50.842;0.166;2023-03-23T09:09:46;13.60;92.20
15630;DHT22;7914;50.842;0.166;2023-03-23T09:12:12;13.60;91.90
15630;DHT22;7914;50.842;0.166;2023-03-23T09:14:38;13.50;91.30
15630;DHT22;7914;50.842;0.166;2023-03-23T09:17:05;13.10;92.50
15630;DHT22;7914;50.842;0.166;2023-03-23T09:19:32;13.20;92.80
15630;DHT22;7914;50.842;0.166;2023-03-23T09:21:59;13.30;92.90
15630;DHT22;7914;50.842;0.166;2023-03-23T09:24:26;13.50;91.90
15630;DHT22;7914;50.842;0.166;2023-03-23T09:26:53;13.60;92.20
15630;DHT22;7914;50.842;0.166;2023-03-23T09:29:20;13.60;91.80
15630;DHT22;7914;50.842;0.166;2023-03-23T09:31:48;13.60;91.00
15630;DHT22;7914;50.842;0.166;2023-03-23T09:34:15;13.60;89.90
15630;DHT22;7914;50.842;0.166;2023-03-23T09:36:44;13.60;90.30
15630;DHT22;7914;50.842;0.166;2023-03-23T09:39:11;13.50;90.60
15630;DHT22;7914;50.842;0.166;2023-03-23T09:47:38;13.80;90.10
15630;DHT22;7914;50.842;0.166;2023-03-23T09:50:16;13.90;89.90
15630;DHT22;7914;50.842;0.166;2023-03-23T09:53:00;13.90;90.60
15630;DHT22;7914;50.842;0.166;2023-03-23T09:55:28;13.90;89.10
15630;DHT22;7914;50.842;0.166;2023-03-23T09:58:17;14.00;89.40
15630;DHT22;7914;50.842;0.166;2023-03-23T10:00:59;14.00;89.20
15630;DHT22;7914;50.842;0.166;2023-03-23T10:03:30;14.10;89.40
15630;DHT22;7914;50.842;0.166;2023-03-23T10:05:57;14.00;88.90
15630;DHT22;7914;50.842;0.166;2023-03-23T10:08:26;13.90;89.90
15630;DHT22;7914;50.842;0.166;2023-03-23T10:16:09;13.60;90.20
15630;DHT22;7914;50.842;0.166;2023-03-23T10:21:27;13.00;92.70
15630;DHT22;7914;50.842;0.166;2023-03-23T10:24:09;13.00;94.00
15630;DHT22;7914;50.842;0.166;2023-03-23T10:27:19;13.10;94.00
15630;DHT22;7914;50.842;0.166;2023-03-23T10:29:50;13.10;93.70
15630;DHT22;7914;50.842;0.166;2023-03-23T10:32:21;13.50;93.90
15630;DHT22;7914;50.842;0.166;2023-03-23T10:34:59;13.80;92.00
15630;DHT22;7914;50.842;0.166;2023-03-23T10:37:41;13.90;90.80
15630;DHT22;7914;50.842;0.166;2023-03-23T10:40:18;14.20;90.40
15630;DHT22;7914;50.842;0.166;2023-03-23T10:42:45;14.20;88.00
15630;DHT22;7914;50.842;0.166;2023-03-23T10:45:22;14.20;89.10
15630;DHT22;7914;50.842;0.166;2023-03-23T10:50:37;14.40;88.60
15630;DHT22;7914;50.842;0.166;2023-03-23T10:53:36;14.50;88.80
15630;DHT22;7914;50.842;0.166;2023-03-23T10:56:04;14.40;88.70
15630;DHT22;7914;50.842;0.166;2023-03-23T10:58:33;14.40;89.70
15630;DHT22;7914;50.842;0.166;2023-03-23T11:01:03;14.50;89.20
15630;DHT22;7914;50.842;0.166;2023-03-23T11:06:08;14.80;88.00
15630;DHT22;7914;50.842;0.166;2023-03-23T11:08:48;14.60;87.70
15630;DHT22;7914;50.842;0.166;2023-03-23T11:11:32;14.60;88.10
15630;DHT22;7914;50.842;0.166;2023-03-23T11:14:16;14.40;87.40
15630;DHT22;7914;50.842;0.166;2023-03-23T11:16:53;14.50;89.00
15630;DHT22;7914;50.842;0.166;2023-03-23T11:19:32;14.60;88.80
15630;DHT22;7914;50.842;0.166;2023-03-23T11:24:41;14.80;87.80
15630;DHT22;7914;50.842;0.166;2023-03-23T11:27:10;14.90;87.50
15630;DHT22;7914;50.842;0.166;2023-03-23T11:29:47;15.00;86.80
15630;DHT22;7914;50.842;0.166;2023-03-23T11:32:15;14.80;85.90
15630;DHT22;7914;50.842;0.166;2023-03-23T11:34:48;14.70;87.60
15630;DHT22;7914;50.842;0.166;2023-03-23T11:42:45;14.40;87.40
15630;DHT22;7914;50.842;0.166;2023-03-23T11:50:55;14.70;87.90
15630;DHT22;7914;50.842;0.166;2023-03-23T11:58:27;15.00;86.20
15630;DHT22;7914;50.842;0.166;2023-03-23T12:10:02;14.90;84.90
15630;DHT22;7914;50.842;0.166;2023-03-23T12:21:05;15.00;84.20
15630;DHT22;7914;50.842;0.166;2023-03-23T12:32:29;14.60;84.60
15630;DHT22;7914;50.842;0.166;2023-03-23T12:35:25;14.60;83.80
15630;DHT22;7914;50.842;0.166;2023-03-23T12:43:59;14.10;85.70
15630;DHT22;7914;50.842;0.166;2023-03-23T12:46:32;14.00;89.10
15630;DHT22;7914;50.842;0.166;2023-03-23T12:54:24;13.20;87.30
15630;DHT22;7914;50.842;0.166;2023-03-23T12:57:01;13.30;88.40
15630;DHT22;7914;50.842;0.166;2023-03-23T13:02:23;13.60;86.80
15630;DHT22;7914;50.842;0.166;2023-03-23T13:10:28;13.80;84.40
15630;DHT22;7914;50.842;0.166;2023-03-23T13:12:55;13.50;83.80
15630;DHT22;7914;50.842;0.166;2023-03-23T13:18:12;13.70;86.20
15630;DHT22;7914;50.842;0.166;2023-03-23T13:21:11;14.20;84.70
15630;DHT22;7914;50.842;0.166;2023-03-23T13:23:43;14.40;83.30
15630;DHT22;7914;50.842;0.166;2023-03-23T13:26:17;14.10;81.90
15630;DHT22;7914;50.842;0.166;2023-03-23T13:28:59;14.00;83.00
15630;DHT22;7914;50.842;0.166;2023-03-23T13:31:31;14.10;84.40
15630;DHT22;7914;50.842;0.166;2023-03-23T13:34:10;14.20;83.60
15630;DHT22;7914;50.842;0.166;2023-03-23T13:36:39;14.40;82.80
15630;DHT22;7914;50.842;0.166;2023-03-23T13:39:20;14.30;81.70
15630;DHT22;7914;50.842;0.166;2023-03-23T13:50:08;14.50;82.20
15630;DHT22;7914;50.842;0.166;2023-03-23T13:52:51;14.40;82.80
15630;DHT22;7914;50.842;0.166;2023-03-23T14:03:26;14.40;84.60
15630;DHT22;7914;50.842;0.166;2023-03-23T14:06:03;14.40;85.10
15630;DHT22;7914;50.842;0.166;2023-03-23T14:11:14;14.40;83.90
15630;DHT22;7914;50.842;0.166;2023-03-23T14:13:58;14.40;84.80
15630;DHT22;7914;50.842;0.166;2023-03-23T14:16:50;14.40;85.00
15630;DHT22;7914;50.842;0.166;2023-03-23T14:19:39;14.30;84.40
15630;DHT22;7914;50.842;0.166;2023-03-23T14:22:22;14.50;84.40
15630;DHT22;7914;50.842;0.166;2023-03-23T14:24:49;14.30;83.80
15630;DHT22;7914;50.842;0.166;2023-03-23T14:27:22;14.10;85.00
15630;DHT22;7914;50.842;0.166;2023-03-23T14:29:59;14.20;84.50
15630;DHT22;7914;50.842;0.166;2023-03-23T14:32:29;14.20;84.20
15630;DHT22;7914;50.842;0.166;2023-03-23T14:34:57;14.10;83.60
15630;DHT22;7914;50.842;0.166;2023-03-23T14:37:25;13.90;85.50
15630;DHT22;7914;50.842;0.166;2023-03-23T14:39:55;13.70;88.30
15630;DHT22;7914;50.842;0.166;2023-03-23T14:42:31;13.60;89.70
15630;DHT22;7914;50.842;0.166;2023-03-23T14:44:59;13.30;90.90
15630;DHT22;7914;50.842;0.166;2023-03-23T14:49:59;13.10;90.70
15630;DHT22;7914;50.842;0.166;2023-03-23T14:52:28;12.90;93.00
15630;DHT22;7914;50.842;0.166;2023-03-23T14:55:06;12.50;95.90
15630;DHT22;7914;50.842;0.166;2023-03-23T14:57:34;12.40;97.40
15630;DHT22;7914;50.842;0.166;2023-03-23T15:00:00;12.50;96.30
15630;DHT22;7914;50.842;0.166;2023-03-23T15:05:03;12.30;96.20
15630;DHT22;7914;50.842;0.166;2023-03-23T15:07:32;12.10;97.90
15630;DHT22;7914;50.842;0.166;2023-03-23T15:09:59;12.00;99.60
15630;DHT22;7914;50.842;0.166;2023-03-23T15:12:28;11.90;100.00
15630;DHT22;7914;50.842;0.166;2023-03-23T15:15:05;11.80;100.00
15630;DHT22;7914;50.842;0.166;2023-03-23T15:17:37;11.60;100.00
15630;DHT22;7914;50.842;0.166;2023-03-23T15:20:25;11.50;100.00
15630;DHT22;7914;50.842;0.166;2023-03-23T15:22:54;11.40;100.00
15630;DHT22;7914;50.842;0.166;2023-03-23T15:25:30;11.40;100.00
15630;DHT22;7914;50.842;0.166;2023-03-23T15:28:17;11.30;100.00
15630;DHT22;7914;50.842;0.166;2023-03-23T15:30:48;11.30;100.00
15630;DHT22;7914;50.842;0.166;2023-03-23T15:33:15;11.30;100.00
15630;DHT22;7914;50.842;0.166;2023-03-23T15:35:50;11.20;100.00
15630;DHT22;7914;50.842;0.166;2023-03-23T15:38:30;11.20;100.00
15630;DHT22;7914;50.842;0.166;2023-03-23T15:41:00;11.10;100.00
15630;DHT22;7914;50.842;0.166;2023-03-23T15:43:34;11.10;100.00
15630;DHT22;7914;50.842;0.166;2023-03-23T15:46:03;11.10;100.00
15630;DHT22;7914;50.842;0.166;2023-03-23T15:51:22;11.10;100.00
15630;DHT22;7914;50.842;0.166;2023-03-23T15:53:54;11.00;100.00
15630;DHT22;7914;50.842;0.166;2023-03-23T15:56:20;11.00;100.00
15630;DHT22;7914;50.842;0.166;2023-03-23T15:58:47;11.00;100.00
15630;DHT22;7914;50.842;0.166;2023-03-23T16:01:13;11.00;100.00
15630;DHT22;7914;50.842;0.166;2023-03-23T16:03:53;11.10;100.00
15630;DHT22;7914;50.842;0.166;2023-03-23T16:06:25;11.10;100.00
15630;DHT22;7914;50.842;0.166;2023-03-23T16:08:55;11.00;100.00
15630;DHT22;7914;50.842;0.166;2023-03-23T16:11:23;10.90;100.00
15630;DHT22;7914;50.842;0.166;2023-03-23T16:13:50;10.90;100.00
15630;DHT22;7914;50.842;0.166;2023-03-23T16:16:26;10.90;100.00
15630;DHT22;7914;50.842;0.166;2023-03-23T16:18:53;10.80;100.00
15630;DHT22;7914;50.842;0.166;2023-03-23T16:21:19;10.80;100.00
15630;DHT22;7914;50.842;0.166;2023-03-23T16:23:45;10.80;100.00
15630;DHT22;7914;50.842;0.166;2023-03-23T16:26:13;10.90;100.00
15630;DHT22;7914;50.842;0.166;2023-03-23T16:28:39;10.80;100.00
15630;DHT22;7914;50.842;0.166;2023-03-23T16:31:07;10.70;100.00
15630;DHT22;7914;50.842;0.166;2023-03-23T16:33:33;10.70;100.00
15630;DHT22;7914;50.842;0.166;2023-03-23T16:35:58;10.80;100.00
15630;DHT22;7914;50.842;0.166;2023-03-23T16:38:24;10.80;100.00
15630;DHT22;7914;50.842;0.166;2023-03-23T16:40:50;10.90;100.00
15630;DHT22;7914;50.842;0.166;2023-03-23T16:43:17;10.90;100.00
15630;DHT22;7914;50.842;0.166;2023-03-23T16:45:45;10.80;100.00
15630;DHT22;7914;50.842;0.166;2023-03-23T16:48:12;10.90;100.00
15630;DHT22;7914;50.842;0.166;2023-03-23T16:50:38;10.90;100.00
15630;DHT22;7914;50.842;0.166;2023-03-23T16:53:06;10.90;100.00
15630;DHT22;7914;50.842;0.166;2023-03-23T16:55:33;10.80;100.00
15630;DHT22;7914;50.842;0.166;2023-03-23T16:58:00;10.90;100.00
15630;DHT22;7914;50.842;0.166;2023-03-23T17:00:26;10.90;100.00
15630;DHT22;7914;50.842;0.166;2023-03-23T17:02:53;10.90;100.00
15630;DHT22;7914;50.842;0.166;2023-03-23T17:05:24;10.90;100.00
15630;DHT22;7914;50.842;0.166;2023-03-23T17:07:52;10.90;100.00
15630;DHT22;7914;50.842;0.166;2023-03-23T17:10:24;10.90;100.00
15630;DHT22;7914;50.842;0.166;2023-03-23T17:12:52;11.00;100.00
15630;DHT22;7914;50.842;0.166;2023-03-23T17:15:18;11.00;100.00
15630;DHT22;7914;50.842;0.166;2023-03-23T17:17:44;11.00;100.00
15630;DHT22;7914;50.842;0.166;2023-03-23T17:20:11;10.90;100.00
15630;DHT22;7914;50.842;0.166;2023-03-23T17:22:38;10.90;100.00
15630;DHT22;7914;50.842;0.166;2023-03-23T17:25:06;10.90;100.00
15630;DHT22;7914;50.842;0.166;2023-03-23T17:27:33;10.90;100.00
15630;DHT22;7914;50.842;0.166;2023-03-23T17:29:59;11.00;100.00
15630;DHT22;7914;50.842;0.166;2023-03-23T17:32:27;11.00;100.00
15630;DHT22;7914;50.842;0.166;2023-03-23T17:34:53;11.00;100.00
15630;DHT22;7914;50.842;0.166;2023-03-23T17:37:20;10.90;100.00
15630;DHT22;7914;50.842;0.166;2023-03-23T17:39:46;10.90;100.00
15630;DHT22;7914;50.842;0.166;2023-03-23T17:42:12;10.90;100.00
15630;DHT22;7914;50.842;0.166;2023-03-23T17:44:38;10.80;100.00
15630;DHT22;7914;50.842;0.166;2023-03-23T17:47:04;10.70;100.00
15630;DHT22;7914;50.842;0.166;2023-03-23T17:49:31;10.70;100.00
15630;DHT22;7914;50.842;0.166;2023-03-23T17:51:58;10.60;100.00
15630;DHT22;7914;50.842;0.166;2023-03-23T17:54:25;10.50;100.00
15630;DHT22;7914;50.842;0.166;2023-03-23T17:56:52;10.60;100.00
15630;DHT22;7914;50.842;0.166;2023-03-23T17:59:18;10.60;100.00
15630;DHT22;7914;50.842;0.166;2023-03-23T18:01:46;10.60;100.00
15630;DHT22;7914;50.842;0.166;2023-03-23T18:04:13;10.70;100.00
15630;DHT22;7914;50.842;0.166;2023-03-23T18:06:39;10.60;100.00
15630;DHT22;7914;50.842;0.166;2023-03-23T18:09:05;10.60;100.00
15630;DHT22;7914;50.842;0.166;2023-03-23T18:11:31;10.50;100.00